Time;durP1;ratioP1;P1;durP2;ratioP2;P2;SDS_P1;SDS_P2;PMS_P1;PMS_P2;Temp;Humidity;BMP_temperature;BMP_pressure;BME280_temperature;BME280_humidity;BME280_pressure;Samples;Min_cycle;Max_cycle;Signal;HPM_P1;HPM_P2
2024/02/27 00:01:30;;;;;;;6.65;2.45;;;4.20;99.90;;;;;;5123338;27;20104;-64
2024/02/27 00:03:59;;;;;;;6.90;2.80;;;4.20;99.90;;;;;;5111019;27;20062;-63
2024/02/27 00:06:25;;;;;;;5.97;2.72;;;4.10;99.90;;;;;;5122279;27;20182;-63
2024/02/27 00:08:51;;;;;;;5.03;2.28;;;4.10;99.90;;;;;;5121269;27;20039;-63
2024/02/27 00:11:17;;;;;;;4.95;2.47;;;4.10;99.90;;;;;;5116335;28;20118;-63
2024/02/27 00:13:43;;;;;;;5.35;2.50;;;4.00;99.90;;;;;;5120788;27;20409;-64
2024/02/27 00:16:08;;;;;;;6.70;2.63;;;4.00;99.90;;;;;;5120462;27;20099;-63
2024/02/27 00:18:34;;;;;;;8.43;3.03;;;4.10;99.90;;;;;;5115541;27;20087;-63
2024/02/27 00:21:00;;;;;;;5.78;2.60;;;4.00;99.90;;;;;;5115165;27;20047;-64
2024/02/27 00:23:26;;;;;;;8.38;2.70;;;4.00;99.90;;;;;;5119711;28;20039;-63
2024/02/27 00:25:52;;;;;;;6.25;2.63;;;4.00;99.90;;;;;;5125561;27;20034;-63
2024/02/27 00:28:18;;;;;;;6.63;2.40;;;4.00;99.90;;;;;;5121245;27;20035;-64
2024/02/27 00:30:43;;;;;;;6.47;2.75;;;4.10;99.90;;;;;;5115225;27;20041;-62
2024/02/27 00:33:09;;;;;;;9.90;3.72;;;4.00;99.90;;;;;;5121073;27;20039;-63
2024/02/27 00:35:35;;;;;;;9.10;3.05;;;4.00;99.90;;;;;;5123143;27;20067;-63
2024/02/27 00:38:01;;;;;;;7.20;2.35;;;4.00;99.90;;;;;;5121880;27;20039;-63
2024/02/27 00:40:27;;;;;;;6.43;3.03;;;4.00;99.90;;;;;;5118621;27;20043;-63
2024/02/27 00:42:53;;;;;;;8.95;3.10;;;4.00;99.90;;;;;;5131090;27;20047;-63
2024/02/27 00:45:18;;;;;;;4.97;3.05;;;4.00;99.90;;;;;;5115727;27;20110;-62
2024/02/27 00:47:44;;;;;;;6.03;2.70;;;3.90;99.90;;;;;;5116024;27;20059;-62
2024/02/27 00:50:10;;;;;;;7.63;3.20;;;3.80;99.90;;;;;;5124399;27;20482;-64
2024/02/27 00:52:37;;;;;;;7.70;3.15;;;3.80;99.90;;;;;;5116766;27;20120;-64
2024/02/27 00:55:04;;;;;;;5.80;3.35;;;3.70;99.90;;;;;;5124797;27;20046;-63
2024/02/27 00:57:33;;;;;;;7.95;3.10;;;3.70;99.90;;;;;;5116986;27;20045;-62
2024/02/27 01:00:07;;;;;;;6.05;3.58;;;3.60;99.90;;;;;;5123992;27;20036;-63
2024/02/27 01:02:34;;;;;;;6.28;3.55;;;3.60;99.90;;;;;;5118362;27;20553;-63
2024/02/27 01:05:00;;;;;;;5.88;3.47;;;3.60;99.90;;;;;;5111178;27;20114;-62
2024/02/27 01:07:26;;;;;;;7.63;3.45;;;3.60;99.90;;;;;;5119844;27;20462;-62
2024/02/27 01:09:53;;;;;;;9.05;3.95;;;3.60;99.90;;;;;;5121523;27;20091;-62
2024/02/27 01:12:19;;;;;;;9.40;4.32;;;3.60;99.90;;;;;;5120154;27;20043;-63
2024/02/27 01:14:45;;;;;;;7.50;3.72;;;3.60;99.90;;;;;;5119593;27;20529;-62
2024/02/27 01:17:11;;;;;;;8.65;4.45;;;3.60;99.90;;;;;;5120035;27;20031;-62
2024/02/27 01:19:37;;;;;;;7.28;3.78;;;3.60;99.90;;;;;;5122756;27;20039;-62
2024/02/27 01:22:03;;;;;;;11.00;4.13;;;3.60;99.90;;;;;;5120181;27;20118;-64
2024/02/27 01:24:28;;;;;;;6.75;3.88;;;3.60;99.90;;;;;;5121535;27;20066;-63
2024/02/27 01:26:54;;;;;;;11.18;4.13;;;3.60;99.90;;;;;;5118468;27;20038;-64
2024/02/27 01:29:20;;;;;;;4.95;3.60;;;3.60;99.90;;;;;;5123326;27;20035;-62
2024/02/27 01:31:46;;;;;;;7.22;3.97;;;3.60;99.90;;;;;;5126131;27;20460;-63
2024/02/27 01:34:12;;;;;;;11.95;4.30;;;3.50;99.90;;;;;;5125128;27;20561;-62
2024/02/27 01:36:38;;;;;;;7.75;4.55;;;3.60;99.90;;;;;;5132857;27;20039;-62
2024/02/27 01:39:04;;;;;;;10.07;5.15;;;3.60;99.90;;;;;;5125865;27;20043;-63
2024/02/27 01:41:31;;;;;;;9.63;5.03;;;3.60;99.90;;;;;;5119815;27;20107;-62
2024/02/27 01:43:56;;;;;;;9.55;4.70;;;3.60;99.90;;;;;;5112832;27;20046;-63
2024/02/27 01:46:23;;;;;;;10.05;4.65;;;3.50;99.90;;;;;;5120874;27;20442;-63
2024/02/27 01:48:50;;;;;;;7.78;5.03;;;3.50;99.90;;;;;;5125306;27;20041;-64
2024/02/27 01:51:17;;;;;;;9.70;5.35;;;3.50;99.90;;;;;;5126121;27;20038;-63
2024/02/27 01:53:49;;;;;;;9.77;5.05;;;3.50;99.90;;;;;;5124024;27;20031;-62
2024/02/27 01:56:16;;;;;;;9.45;5.47;;;3.50;99.90;;;;;;5121467;27;20042;-62
2024/02/27 01:58:43;;;;;;;11.32;5.47;;;3.40;99.90;;;;;;5115650;27;20067;-62
2024/02/27 02:01:11;;;;;;;11.02;5.22;;;3.40;99.90;;;;;;5115467;27;20557;-62
2024/02/27 02:03:38;;;;;;;7.93;4.85;;;3.40;99.90;;;;;;5119052;27;20046;-63
2024/02/27 02:06:06;;;;;;;11.27;6.10;;;3.40;99.90;;;;;;5124317;27;20571;-62
2024/02/27 02:08:34;;;;;;;14.40;6.13;;;3.40;99.90;;;;;;5116213;27;20035;-63
2024/02/27 02:11:07;;;;;;;10.82;5.72;;;3.40;99.90;;;;;;5120812;27;20049;-63
2024/02/27 02:13:33;;;;;;;10.98;6.25;;;3.30;99.90;;;;;;5122273;27;20358;-63
2024/02/27 02:16:00;;;;;;;10.55;5.32;;;3.30;99.90;;;;;;5120936;27;20043;-64
2024/02/27 02:18:26;;;;;;;12.43;6.10;;;3.20;99.90;;;;;;5113103;27;20566;-62
2024/02/27 02:20:51;;;;;;;10.27;6.03;;;3.30;99.90;;;;;;5121138;27;20039;-62
2024/02/27 02:23:17;;;;;;;13.57;6.90;;;3.20;99.90;;;;;;5119793;27;20322;-62
2024/02/27 02:25:45;;;;;;;10.30;6.03;;;3.20;99.90;;;;;;5122156;27;20043;-63
2024/02/27 02:28:11;;;;;;;12.30;6.60;;;3.20;99.90;;;;;;5123716;27;20035;-63
2024/02/27 02:30:36;;;;;;;18.63;6.90;;;3.20;99.90;;;;;;5120162;27;20111;-63
2024/02/27 02:33:02;;;;;;;10.88;5.85;;;3.20;99.90;;;;;;5114018;27;20138;-63
2024/02/27 02:35:28;;;;;;;10.38;7.00;;;3.20;99.90;;;;;;5119536;27;20074;-63
2024/02/27 02:37:54;;;;;;;13.90;6.40;;;2.70;99.90;;;;;;5121511;27;20728;-63
2024/02/27 02:40:21;;;;;;;14.18;7.15;;;3.10;99.90;;;;;;5122241;27;20834;-63
2024/02/27 02:42:47;;;;;;;11.30;6.43;;;3.10;99.90;;;;;;5110207;27;20076;-64
2024/02/27 02:45:14;;;;;;;12.60;6.00;;;3.10;99.90;;;;;;5123499;27;20031;-63
2024/02/27 02:47:40;;;;;;;14.48;6.13;;;3.00;99.90;;;;;;5113632;27;20039;-63
2024/02/27 02:50:07;;;;;;;12.90;6.38;;;3.00;99.90;;;;;;5107845;27;20043;-63
2024/02/27 02:52:34;;;;;;;9.10;6.35;;;2.90;99.90;;;;;;5119829;27;20087;-65
2024/02/27 02:55:02;;;;;;;10.68;6.13;;;2.80;99.90;;;;;;5122822;27;20047;-63
2024/02/27 02:57:29;;;;;;;12.40;6.45;;;2.80;99.90;;;;;;5119946;27;20514;-63
2024/02/27 02:59:55;;;;;;;12.88;6.32;;;2.70;99.90;;;;;;5122017;27;20378;-63
2024/02/27 03:02:21;;;;;;;8.07;5.55;;;2.70;99.90;;;;;;5121153;27;20066;-63
2024/02/27 03:04:47;;;;;;;10.60;5.95;;;2.70;99.90;;;;;;5118138;27;20164;-63
2024/02/27 03:07:13;;;;;;;8.90;5.63;;;2.60;99.90;;;;;;5117038;27;20100;-63
2024/02/27 03:09:38;;;;;;;11.23;6.50;;;2.50;99.90;;;;;;5120021;27;20406;-63
2024/02/27 03:12:04;;;;;;;9.93;5.68;;;2.50;99.90;;;;;;5117653;27;20486;-62
2024/02/27 03:14:30;;;;;;;11.43;6.22;;;2.40;99.90;;;;;;5121538;27;20366;-62
2024/02/27 03:16:56;;;;;;;10.55;6.22;;;2.30;99.90;;;;;;5114922;27;20057;-63
2024/02/27 03:19:22;;;;;;;12.55;6.85;;;2.30;99.90;;;;;;5115478;27;20051;-62
2024/02/27 03:21:48;;;;;;;11.20;6.65;;;2.30;99.90;;;;;;5118991;27;20433;-63
2024/02/27 03:24:14;;;;;;;14.18;7.20;;;2.30;99.90;;;;;;5119237;27;20131;-62
2024/02/27 03:26:42;;;;;;;13.80;7.25;;;2.30;99.90;;;;;;5114593;27;20035;-63
2024/02/27 03:29:08;;;;;;;13.88;7.57;;;2.40;99.90;;;;;;5111527;27;20477;-63
2024/02/27 03:31:34;;;;;;;10.05;6.90;;;2.20;99.90;;;;;;5112972;27;20162;-63
2024/02/27 03:33:59;;;;;;;15.27;6.88;;;2.20;99.90;;;;;;5115944;27;20055;-62
2024/02/27 03:36:25;;;;;;;12.50;5.97;;;2.20;99.90;;;;;;5125599;27;20339;-63
2024/02/27 03:38:51;;;;;;;12.00;6.70;;;2.40;99.90;;;;;;5118385;27;20036;-66
2024/02/27 03:41:18;;;;;;;18.13;6.63;;;2.40;99.90;;;;;;5118131;27;20039;-62
2024/02/27 03:43:44;;;;;;;8.93;6.30;;;2.40;99.90;;;;;;5118645;27;20039;-63
2024/02/27 03:46:10;;;;;;;11.90;6.35;;;2.40;99.90;;;;;;5114436;27;20257;-62
2024/02/27 03:48:36;;;;;;;11.88;6.10;;;2.50;99.90;;;;;;5121035;27;20031;-62
2024/02/27 03:51:03;;;;;;;14.30;6.53;;;2.50;99.90;;;;;;5110442;27;20051;-62
2024/02/27 03:53:31;;;;;;;13.18;6.47;;;2.60;99.90;;;;;;5116580;28;20070;-63
2024/02/27 03:55:58;;;;;;;11.63;5.95;;;2.50;99.90;;;;;;5121170;27;20741;-63
2024/02/27 03:58:24;;;;;;;12.48;6.15;;;2.50;99.90;;;;;;5116164;27;20126;-63
2024/02/27 04:00:50;;;;;;;11.68;5.97;;;2.50;99.90;;;;;;5119610;27;20154;-62
2024/02/27 04:03:16;;;;;;;11.15;5.70;;;2.50;99.90;;;;;;5116835;27;20682;-62
2024/02/27 04:05:42;;;;;;;7.55;4.70;;;2.60;99.90;;;;;;5122852;27;20220;-62
2024/02/27 04:08:08;;;;;;;8.65;5.15;;;2.50;99.90;;;;;;5111060;27;20057;-62
2024/02/27 04:10:35;;;;;;;9.23;4.63;;;2.50;99.90;;;;;;5115505;27;20402;-64
2024/02/27 04:13:00;;;;;;;11.73;4.97;;;2.60;99.90;;;;;;5116486;27;20123;-63
2024/02/27 04:15:26;;;;;;;9.45;4.32;;;2.60;99.90;;;;;;5121751;27;20046;-63
2024/02/27 04:17:52;;;;;;;9.93;4.18;;;2.60;99.90;;;;;;5117400;27;20051;-62
2024/02/27 04:20:18;;;;;;;10.23;4.63;;;2.70;99.90;;;;;;5126696;27;20043;-62
2024/02/27 04:22:44;;;;;;;14.02;5.32;;;2.60;99.90;;;;;;5122744;27;20443;-63
2024/02/27 04:25:10;;;;;;;12.52;4.60;;;2.70;99.90;;;;;;5123284;27;20540;-62
2024/02/27 04:27:36;;;;;;;7.88;4.15;;;2.70;99.90;;;;;;5115045;27;20146;-62
2024/02/27 04:30:04;;;;;;;8.40;3.88;;;2.70;99.90;;;;;;5124380;27;20035;-62
2024/02/27 04:32:30;;;;;;;8.98;3.88;;;2.70;99.90;;;;;;5120848;27;20467;-62
2024/02/27 04:34:55;;;;;;;10.77;3.35;;;2.80;99.90;;;;;;5125775;27;20051;-62
2024/02/27 04:37:21;;;;;;;7.05;4.05;;;2.80;99.90;;;;;;5114891;27;20134;-63
2024/02/27 04:39:47;;;;;;;10.75;3.70;;;2.70;99.90;;;;;;5115144;27;20109;-62
2024/02/27 04:42:13;;;;;;;6.88;3.50;;;2.80;99.90;;;;;;5119578;27;20039;-62
2024/02/27 04:44:38;;;;;;;5.68;3.05;;;2.70;99.90;;;;;;5121460;27;20758;-62
2024/02/27 04:47:07;;;;;;;8.35;3.63;;;2.60;99.90;;;;;;5121437;27;20493;-63
2024/02/27 04:49:33;;;;;;;6.47;3.20;;;2.80;99.90;;;;;;5123566;27;20039;-63
2024/02/27 04:51:59;;;;;;;5.93;3.30;;;2.80;99.90;;;;;;5124601;27;20066;-62
2024/02/27 04:54:24;;;;;;;5.90;3.03;;;2.80;99.90;;;;;;5123829;27;20372;-63
2024/02/27 04:56:50;;;;;;;9.88;3.15;;;2.80;99.90;;;;;;5124880;27;20071;-63
2024/02/27 04:59:16;;;;;;;7.32;3.33;;;2.80;99.90;;;;;;5117030;27;20035;-63
2024/02/27 05:01:48;;;;;;;7.65;3.53;;;2.80;99.90;;;;;;5122538;27;20043;-62
2024/02/27 05:04:14;;;;;;;7.50;3.60;;;2.70;99.90;;;;;;5119549;27;20083;-63
2024/02/27 05:06:40;;;;;;;8.50;3.75;;;2.70;99.90;;;;;;5113749;27;20032;-62
2024/02/27 05:09:07;;;;;;;8.55;3.30;;;2.70;99.90;;;;;;5121849;27;20615;-63
2024/02/27 05:11:33;;;;;;;7.05;3.38;;;2.80;99.90;;;;;;5121974;27;20078;-63
2024/02/27 05:13:58;;;;;;;7.18;3.83;;;2.70;99.90;;;;;;5116065;27;20081;-63
2024/02/27 05:16:24;;;;;;;5.38;3.10;;;2.80;99.90;;;;;;5118337;27;20142;-63
2024/02/27 05:18:50;;;;;;;8.27;3.67;;;2.90;99.90;;;;;;5124423;27;20027;-63
2024/02/27 05:21:20;;;;;;;8.02;3.63;;;2.90;99.90;;;;;;5119300;27;20126;-63
2024/02/27 05:23:46;;;;;;;9.02;3.70;;;2.90;99.90;;;;;;5124450;27;20109;-63
2024/02/27 05:26:13;;;;;;;10.20;4.15;;;3.00;99.90;;;;;;5121190;27;20057;-62
2024/02/27 05:28:38;;;;;;;8.20;4.40;;;3.10;99.90;;;;;;5117130;27;20043;-63
2024/02/27 05:31:29;;;;;;;10.40;3.67;;;3.10;99.90;;;;;;5108484;27;20039;-62
2024/02/27 05:33:56;;;;;;;9.98;4.22;;;3.20;99.90;;;;;;5122680;27;20034;-62
2024/02/27 05:36:23;;;;;;;11.38;4.18;;;3.20;99.90;;;;;;5123100;27;20067;-62
2024/02/27 05:38:50;;;;;;;8.60;4.10;;;3.30;99.90;;;;;;5112913;27;20512;-62
2024/02/27 05:41:17;;;;;;;10.68;5.07;;;3.30;99.90;;;;;;5114859;27;20100;-62
2024/02/27 05:43:43;;;;;;;16.17;5.75;;;3.30;99.90;;;;;;5118407;27;20054;-62
2024/02/27 05:46:09;;;;;;;10.25;5.15;;;3.30;99.90;;;;;;5113373;27;20531;-64
2024/02/27 05:48:39;;;;;;;14.18;5.88;;;3.50;99.90;;;;;;5121242;27;20094;-64
2024/02/27 05:51:09;;;;;;;13.13;5.97;;;3.40;99.90;;;;;;5119385;27;20042;-64
2024/02/27 05:53:35;;;;;;;13.25;6.20;;;3.50;99.90;;;;;;5112068;27;20388;-64
2024/02/27 05:56:02;;;;;;;11.13;6.47;;;3.50;99.90;;;;;;5120383;27;20118;-64
2024/02/27 05:58:28;;;;;;;13.80;6.65;;;3.40;99.90;;;;;;5129252;27;20663;-63
2024/02/27 06:00:55;;;;;;;10.90;5.93;;;3.40;99.90;;;;;;5123322;27;20513;-64
2024/02/27 06:03:24;;;;;;;11.63;6.15;;;3.50;99.90;;;;;;5131173;27;20038;-64
2024/02/27 06:05:50;;;;;;;;;;;3.60;99.90;;;;;;5129080;27;20492;-64
2024/02/27 06:08:17;;;;;;;11.70;6.63;;;3.60;99.90;;;;;;5129742;27;20393;-63
2024/02/27 06:10:43;;;;;;;10.05;5.70;;;3.50;99.90;;;;;;5127122;27;20039;-63
2024/02/27 06:13:09;;;;;;;8.45;5.80;;;3.60;99.90;;;;;;5129150;27;20043;-64
2024/02/27 06:15:35;;;;;;;12.07;7.03;;;3.50;99.90;;;;;;5128965;27;20345;-62
2024/02/27 06:18:02;;;;;;;10.60;6.00;;;3.60;99.90;;;;;;5127074;27;20042;-62
2024/02/27 06:23:12;;;;;;;12.82;5.85;;;3.60;99.90;;;;;;5129183;27;20121;-62
2024/02/27 06:25:38;;;;;;;11.85;6.70;;;3.60;99.90;;;;;;5127682;27;20041;-62
2024/02/27 06:28:04;;;;;;;17.50;7.65;;;3.60;99.90;;;;;;5126776;27;20091;-63
2024/02/27 06:30:30;;;;;;;13.35;7.30;;;3.60;99.90;;;;;;5129915;27;20043;-63
2024/02/27 06:32:56;;;;;;;11.63;6.68;;;3.60;99.90;;;;;;5128072;27;20169;-63
2024/02/27 06:35:23;;;;;;;9.52;6.30;;;3.70;99.90;;;;;;5129207;27;20050;-63
2024/02/27 06:37:49;;;;;;;10.80;7.20;;;3.70;99.90;;;;;;5127300;27;20089;-63
2024/02/27 06:40:16;;;;;;;15.93;6.82;;;3.80;99.90;;;;;;5125095;27;20129;-63
2024/02/27 06:42:43;;;;;;;11.43;7.13;;;3.80;99.90;;;;;;5129058;27;20050;-64
2024/02/27 06:45:10;;;;;;;12.50;7.13;;;3.70;99.90;;;;;;5129253;27;20433;-63
2024/02/27 06:47:41;;;;;;;13.52;7.68;;;3.80;99.90;;;;;;5125161;27;20430;-63
2024/02/27 06:50:09;;;;;;;13.43;7.15;;;3.80;99.90;;;;;;5128763;27;20117;-63
2024/02/27 06:52:36;;;;;;;12.48;7.18;;;3.80;99.90;;;;;;5127623;27;20074;-63
2024/02/27 06:55:03;;;;;;;12.10;7.78;;;3.80;99.90;;;;;;5129608;27;20106;-62
2024/02/27 06:57:29;;;;;;;12.60;7.57;;;3.90;99.90;;;;;;5128489;27;20126;-62
2024/02/27 06:59:55;;;;;;;13.02;7.38;;;3.70;99.90;;;;;;5128904;27;20123;-63
2024/02/27 07:02:21;;;;;;;10.23;6.93;;;3.90;99.90;;;;;;5125478;27;20072;-62
2024/02/27 07:04:47;;;;;;;11.27;7.70;;;3.80;99.90;;;;;;5127003;27;20439;-62
2024/02/27 07:07:13;;;;;;;14.60;7.40;;;3.70;99.90;;;;;;5126766;27;20039;-62
2024/02/27 07:09:39;;;;;;;14.50;7.85;;;3.80;99.90;;;;;;5128102;27;20099;-62
2024/02/27 07:12:05;;;;;;;11.23;7.70;;;3.70;99.90;;;;;;5126438;27;20377;-62
2024/02/27 07:14:33;;;;;;;12.88;8.00;;;3.70;99.90;;;;;;5126810;27;20054;-62
2024/02/27 07:16:59;;;;;;;14.30;7.80;;;3.70;99.90;;;;;;5127589;27;20047;-63
2024/02/27 07:19:26;;;;;;;11.80;7.55;;;3.80;99.90;;;;;;5128058;27;20068;-63
2024/02/27 07:21:52;;;;;;;11.82;7.00;;;3.80;99.90;;;;;;5121850;27;20504;-63
2024/02/27 07:24:19;;;;;;;12.45;7.47;;;3.80;99.90;;;;;;5127534;27;20047;-63
2024/02/27 07:26:45;;;;;;;10.13;6.70;;;3.90;99.90;;;;;;5125335;27;20811;-63
2024/02/27 07:29:13;;;;;;;13.45;7.80;;;4.00;99.90;;;;;;5126372;27;20711;-63
2024/02/27 07:31:39;;;;;;;14.43;8.00;;;4.00;99.90;;;;;;5128405;27;20061;-61
2024/02/27 07:34:05;;;;;;;12.60;8.63;;;4.10;99.90;;;;;;5127553;27;20062;-62
2024/02/27 07:36:31;;;;;;;16.48;9.52;;;4.00;99.90;;;;;;5125042;27;20507;-62
2024/02/27 07:38:56;;;;;;;12.85;8.60;;;4.50;99.90;;;;;;5123522;27;20054;-63
2024/02/27 07:41:22;;;;;;;13.38;8.85;;;4.10;99.90;;;;;;5126406;27;20039;-63
2024/02/27 07:43:48;;;;;;;16.27;9.27;;;4.20;99.90;;;;;;5128898;27;20080;-63
2024/02/27 07:46:15;;;;;;;16.40;8.68;;;4.30;99.90;;;;;;5125587;27;20047;-63
2024/02/27 07:48:44;;;;;;;15.63;8.95;;;4.30;99.90;;;;;;5129452;27;20062;-63
2024/02/27 07:51:33;;;;;;;16.77;9.57;;;4.40;99.90;;;;;;5125764;27;20540;-63
2024/02/27 07:53:59;;;;;;;13.15;8.18;;;4.50;99.90;;;;;;5125870;27;20049;-63
2024/02/27 07:56:27;;;;;;;14.90;8.82;;;4.50;99.90;;;;;;5129454;27;20304;-63
2024/02/27 07:58:55;;;;;;;12.65;8.55;;;4.50;99.90;;;;;;5127552;27;20068;-63
2024/02/27 08:01:21;;;;;;;14.65;8.60;;;4.50;99.90;;;;;;5128232;27;20439;-63
2024/02/27 08:03:46;;;;;;;16.50;9.30;;;4.70;99.90;;;;;;5122672;27;20096;-63
2024/02/27 08:06:12;;;;;;;16.70;10.18;;;4.70;99.90;;;;;;5128944;27;20035;-63
2024/02/27 08:08:38;;;;;;;15.52;9.13;;;4.70;99.90;;;;;;5122528;27;20509;-63
2024/02/27 08:11:06;;;;;;;15.98;8.68;;;4.80;99.90;;;;;;5125055;27;20628;-63
2024/02/27 08:13:32;;;;;;;14.07;8.35;;;4.90;99.90;;;;;;5125109;27;20038;-63
2024/02/27 08:15:57;;;;;;;16.52;8.63;;;5.00;99.90;;;;;;5127024;27;20042;-63
2024/02/27 08:18:24;;;;;;;16.63;8.73;;;4.90;99.90;;;;;;5128117;27;20477;-63
2024/02/27 08:20:49;;;;;;;15.30;8.95;;;5.00;99.90;;;;;;5125919;27;20575;-63
2024/02/27 08:23:16;;;;;;;15.57;9.48;;;5.00;99.90;;;;;;5126290;27;20130;-63
2024/02/27 08:25:42;;;;;;;13.25;8.15;;;5.10;99.90;;;;;;5125165;27;20081;-63
2024/02/27 08:28:08;;;;;;;17.67;8.65;;;5.20;99.90;;;;;;5124238;27;20357;-63
2024/02/27 08:30:34;;;;;;;16.90;8.50;;;5.30;99.90;;;;;;5127617;27;20234;-63
2024/02/27 08:33:00;;;;;;;14.63;9.25;;;5.30;99.90;;;;;;5127299;27;20367;-63
2024/02/27 08:35:26;;;;;;;17.17;8.75;;;5.30;99.90;;;;;;5128560;27;20122;-63
2024/02/27 08:37:52;;;;;;;14.35;8.88;;;5.40;99.90;;;;;;5125793;27;20122;-63
2024/02/27 08:40:19;;;;;;;16.08;9.65;;;5.40;99.90;;;;;;5128125;27;20038;-63
2024/02/27 08:42:44;;;;;;;14.23;8.80;;;5.50;99.90;;;;;;5129150;27;20031;-63
2024/02/27 08:45:11;;;;;;;15.13;8.77;;;5.60;99.90;;;;;;5125183;27;20084;-63
2024/02/27 08:47:36;;;;;;;14.88;9.32;;;5.70;99.90;;;;;;5128876;27;20418;-63
2024/02/27 08:50:05;;;;;;;13.88;8.77;;;5.90;99.90;;;;;;5129669;27;20035;-63
2024/02/27 08:52:31;;;;;;;15.65;9.63;;;6.10;99.90;;;;;;5130092;27;20039;-63
2024/02/27 08:54:57;;;;;;;15.10;9.45;;;6.10;99.90;;;;;;5129145;27;20045;-62
2024/02/27 08:57:23;;;;;;;19.48;10.18;;;6.20;99.90;;;;;;5128110;27;20404;-62
2024/02/27 08:59:49;;;;;;;15.93;10.18;;;6.20;99.90;;;;;;5130056;27;20157;-62
2024/02/27 09:02:15;;;;;;;12.90;9.38;;;6.30;99.90;;;;;;5130964;27;20070;-62
2024/02/27 09:04:41;;;;;;;13.82;8.70;;;6.40;99.90;;;;;;5130746;27;20064;-62
2024/02/27 09:07:06;;;;;;;14.20;9.43;;;6.50;99.90;;;;;;5131421;27;20409;-62
2024/02/27 09:09:32;;;;;;;11.45;8.80;;;6.50;99.90;;;;;;5125589;27;20442;-61
2024/02/27 09:11:58;;;;;;;15.50;9.95;;;6.50;99.90;;;;;;5128959;27;20073;-62
2024/02/27 09:14:24;;;;;;;13.43;8.65;;;6.80;99.90;;;;;;5131931;27;20386;-62
2024/02/27 09:16:50;;;;;;;16.00;8.23;;;7.00;99.90;;;;;;5129409;27;20047;-62
2024/02/27 09:19:17;;;;;;;14.48;8.57;;;7.20;99.90;;;;;;5125611;27;20289;-61
2024/02/27 09:21:43;;;;;;;10.90;8.23;;;7.30;99.90;;;;;;5130785;27;20508;-62
2024/02/27 09:24:09;;;;;;;11.18;8.48;;;7.40;99.90;;;;;;5127115;27;20122;-62
2024/02/27 09:26:35;;;;;;;11.23;8.48;;;7.80;99.90;;;;;;5127978;27;20041;-62
2024/02/27 09:29:02;;;;;;;10.43;7.25;;;8.00;99.90;;;;;;5128646;27;20126;-62
2024/02/27 09:31:28;;;;;;;11.35;7.97;;;8.50;99.90;;;;;;5127716;27;20043;-62
2024/02/27 09:33:54;;;;;;;8.05;6.57;;;8.00;99.90;;;;;;5130652;27;20112;-62
2024/02/27 09:36:20;;;;;;;10.57;7.35;;;8.10;99.90;;;;;;5129085;27;20043;-62
2024/02/27 09:38:46;;;;;;;9.95;7.53;;;8.40;99.90;;;;;;5129923;27;20161;-62
2024/02/27 09:41:23;;;;;;;15.68;8.70;;;8.40;99.90;;;;;;5127741;27;20042;-61
2024/02/27 09:43:55;;;;;;;11.25;7.78;;;8.60;99.90;;;;;;5130034;27;20031;-62
2024/02/27 09:46:25;;;;;;;10.90;8.30;;;8.60;99.90;;;;;;5129453;27;20050;-62
2024/02/27 09:48:55;;;;;;;12.55;8.05;;;8.60;99.90;;;;;;5127847;27;20039;-62
2024/02/27 09:51:24;;;;;;;12.43;8.68;;;8.70;99.90;;;;;;5129418;27;20313;-62
2024/02/27 09:53:51;;;;;;;12.07;8.47;;;8.70;99.90;;;;;;5129349;27;20043;-61
2024/02/27 09:56:17;;;;;;;10.65;7.93;;;8.60;99.90;;;;;;5131185;27;20504;-62
2024/02/27 09:58:43;;;;;;;10.50;8.18;;;8.40;99.90;;;;;;5127075;27;20151;-61
2024/02/27 10:01:14;;;;;;;11.52;8.00;;;8.30;99.90;;;;;;5131562;27;20130;-61
2024/02/27 10:03:45;;;;;;;11.73;8.32;;;8.00;99.90;;;;;;5129032;27;20560;-61
2024/02/27 10:06:17;;;;;;;8.70;7.78;;;8.00;99.90;;;;;;5128884;27;20575;-61
2024/02/27 10:08:54;;;;;;;11.68;8.15;;;7.90;99.90;;;;;;5124782;27;20099;-62
2024/02/27 10:11:21;;;;;;;10.77;7.95;;;7.80;99.90;;;;;;5129324;27;20047;-62
2024/02/27 10:13:47;;;;;;;10.07;8.27;;;7.80;99.90;;;;;;5128790;27;20038;-62
2024/02/27 10:16:20;;;;;;;8.77;6.97;;;7.80;99.90;;;;;;5130243;27;20454;-62
2024/02/27 10:18:46;;;;;;;9.13;7.15;;;7.60;99.90;;;;;;5129515;27;20039;-61
2024/02/27 10:21:12;;;;;;;11.93;7.50;;;7.70;99.90;;;;;;5128900;27;20073;-62
2024/02/27 10:23:38;;;;;;;8.15;7.35;;;7.60;99.90;;;;;;5129922;27;20034;-62
2024/02/27 10:26:09;;;;;;;10.25;7.50;;;7.60;99.90;;;;;;5128346;27;20043;-62
2024/02/27 10:28:35;;;;;;;10.05;7.43;;;7.60;99.90;;;;;;5128249;27;20458;-63
2024/02/27 10:31:07;;;;;;;9.70;7.80;;;7.60;99.90;;;;;;5130054;27;20139;-62
2024/02/27 10:33:33;;;;;;;14.82;8.23;;;7.60;99.90;;;;;;5127054;27;20046;-62
2024/02/27 10:35:59;;;;;;;10.43;7.75;;;7.60;99.90;;;;;;5130639;27;20053;-62
2024/02/27 10:38:27;;;;;;;8.82;7.22;;;7.60;99.90;;;;;;5130292;27;20317;-61
2024/02/27 10:40:53;;;;;;;10.45;8.23;;;7.60;99.90;;;;;;5126005;27;20046;-62
2024/02/27 10:43:20;;;;;;;8.75;7.50;;;7.60;99.90;;;;;;5128178;27;20035;-61
2024/02/27 10:45:49;;;;;;;11.82;7.82;;;7.70;99.90;;;;;;5129030;27;20251;-62
2024/02/27 10:48:17;;;;;;;9.27;7.65;;;7.60;99.90;;;;;;5130087;27;20039;-62
2024/02/27 10:50:43;;;;;;;9.75;7.53;;;7.60;99.90;;;;;;5128852;27;20117;-62
2024/02/27 10:53:10;;;;;;;9.88;7.38;;;7.60;99.90;;;;;;5128768;27;20034;-62
2024/02/27 10:55:39;;;;;;;7.80;6.95;;;7.70;99.90;;;;;;5129410;27;20128;-62
2024/02/27 10:58:05;;;;;;;;;;;7.70;99.90;;;;;;5129098;27;20512;-62
2024/02/27 11:00:32;;;;;;;11.38;7.25;;;7.70;99.90;;;;;;5126324;27;19962;-62
2024/02/27 11:03:00;;;;;;;8.90;7.72;;;7.60;99.90;;;;;;5128853;27;20113;-62
2024/02/27 11:05:31;;;;;;;10.57;8.45;;;7.70;99.90;;;;;;5126391;27;20085;-63
2024/02/27 11:07:58;;;;;;;9.82;7.20;;;7.70;99.90;;;;;;5128146;27;20104;-63
2024/02/27 11:10:29;;;;;;;9.52;7.90;;;7.70;99.90;;;;;;5126758;27;20038;-62
2024/02/27 11:12:56;;;;;;;8.73;7.40;;;7.70;99.90;;;;;;5129608;27;20083;-62
2024/02/27 11:15:23;;;;;;;7.95;6.82;;;7.80;99.90;;;;;;5127967;27;20082;-62
2024/02/27 11:18:09;;;;;;;7.63;6.20;;;7.70;99.90;;;;;;5127326;27;20039;-62
2024/02/27 11:20:36;;;;;;;8.57;6.80;;;7.70;99.90;;;;;;5127285;27;20581;-62
2024/02/27 11:23:03;;;;;;;8.77;7.25;;;7.90;99.90;;;;;;5129906;27;20505;-62
2024/02/27 11:25:30;;;;;;;9.80;8.25;;;7.80;99.90;;;;;;5129187;27;20039;-62
2024/02/27 11:27:58;;;;;;;10.02;7.85;;;7.80;99.90;;;;;;5124522;27;20043;-62
2024/02/27 11:30:25;;;;;;;9.27;7.73;;;7.90;99.90;;;;;;5126017;27;20035;-62
2024/02/27 11:32:50;;;;;;;10.25;8.48;;;7.80;99.90;;;;;;5124308;27;20047;-61
2024/02/27 11:35:16;;;;;;;9.40;8.07;;;7.80;99.90;;;;;;5127528;27;20085;-62
2024/02/27 11:37:43;;;;;;;11.38;8.15;;;7.80;99.90;;;;;;5124799;27;20043;-61
2024/02/27 11:40:47;;;;;;;11.05;8.00;;;7.80;99.90;;;;;;5126492;27;20035;-62
2024/02/27 11:43:14;;;;;;;9.23;7.32;;;7.90;99.90;;;;;;5125643;27;20066;-62
2024/02/27 11:45:40;;;;;;;9.02;7.60;;;8.00;99.90;;;;;;5126767;27;20508;-61
2024/02/27 11:48:09;;;;;;;9.07;8.02;;;8.00;99.90;;;;;;5126173;27;20031;-62
2024/02/27 11:50:34;;;;;;;8.63;7.72;;;7.90;99.90;;;;;;5124003;27;20236;-62
2024/02/27 11:53:20;;;;;;;8.82;7.85;;;8.00;99.90;;;;;;5126640;27;20119;-61
2024/02/27 11:55:53;;;;;;;9.43;7.75;;;8.00;99.90;;;;;;5124284;27;20086;-61
2024/02/27 11:58:22;;;;;;;10.13;8.35;;;8.10;99.90;;;;;;5126848;27;20043;-62
2024/02/27 12:00:50;;;;;;;10.60;8.05;;;8.00;99.90;;;;;;5127557;27;20037;-61
2024/02/27 12:03:16;;;;;;;10.68;7.90;;;8.00;99.90;;;;;;5128963;27;20039;-62
2024/02/27 12:05:51;;;;;;;10.15;8.38;;;8.00;99.90;;;;;;5123604;27;20074;-62
2024/02/27 12:08:18;;;;;;;11.70;8.45;;;8.00;99.90;;;;;;5123364;27;20046;-62
2024/02/27 12:10:45;;;;;;;9.32;8.32;;;8.20;99.90;;;;;;5127215;27;20577;-62
2024/02/27 12:13:11;;;;;;;12.10;8.07;;;8.10;99.90;;;;;;5127162;27;20054;-63
2024/02/27 12:15:37;;;;;;;9.82;8.63;;;8.20;99.90;;;;;;5127436;27;20042;-62
2024/02/27 12:18:03;;;;;;;9.85;7.97;;;8.30;99.90;;;;;;5125830;27;20636;-62
2024/02/27 12:20:29;;;;;;;10.23;8.65;;;8.20;99.90;;;;;;5128261;27;20043;-62
2024/02/27 12:22:55;;;;;;;8.75;7.68;;;8.30;99.90;;;;;;5129299;27;20043;-62
2024/02/27 12:25:21;;;;;;;11.90;8.98;;;8.40;99.90;;;;;;5131738;27;20129;-63
2024/02/27 12:27:46;;;;;;;9.45;8.43;;;8.50;99.90;;;;;;5126753;27;20300;-62
2024/02/27 12:30:13;;;;;;;9.30;8.02;;;8.70;99.90;;;;;;5131741;27;20077;-62
2024/02/27 12:32:42;;;;;;;10.48;7.97;;;8.70;99.90;;;;;;5129037;27;20095;-62
2024/02/27 12:35:12;;;;;;;9.60;7.63;;;8.90;99.90;;;;;;5128001;27;20522;-62
2024/02/27 12:37:43;;;;;;;8.02;7.22;;;9.20;99.90;;;;;;5127876;27;20043;-62
2024/02/27 12:40:11;;;;;;;11.00;8.13;;;9.50;99.90;;;;;;5129335;27;20497;-62
2024/02/27 12:42:42;;;;;;;10.80;8.55;;;9.70;99.90;;;;;;5131541;27;20493;-62
2024/02/27 12:45:12;;;;;;;10.20;8.32;;;10.00;99.90;;;;;;5131844;27;20043;-62
2024/02/27 12:47:39;;;;;;;11.93;8.73;;;10.10;99.90;;;;;;5130171;27;20066;-62
2024/02/27 12:50:07;;;;;;;10.10;8.80;;;10.20;99.90;;;;;;5130685;27;20044;-62
2024/02/27 12:52:34;;;;;;;11.95;8.02;;;10.00;99.90;;;;;;5128716;27;20077;-62